Time;durP1;ratioP1;P1;durP2;ratioP2;P2;SDS_P1;SDS_P2;PMS_P1;PMS_P2;Temp;Humidity;BMP_temperature;BMP_pressure;BME280_temperature;BME280_humidity;BME280_pressure;Samples;Min_cycle;Max_cycle;Signal;HPM_P1;HPM_P2
2023/01/01 00:01:25;;;;;;;2.70;2.20;;;;;;;10.07;69.97;99196.53;102398;1299;61571;-25
2023/01/01 00:03:53;;;;;;;3.10;2.40;;;;;;;9.88;70.39;99191.38;102152;1301;75147;-25
2023/01/01 00:06:20;;;;;;;4.00;2.70;;;;;;;9.62;71.40;99191.77;102155;1302;77025;-25
2023/01/01 00:08:48;;;;;;;4.80;3.10;;;;;;;9.44;71.74;99188.10;102357;1299;75083;-25
2023/01/01 00:11:15;;;;;;;3.20;2.40;;;;;;;9.37;72.53;99188.80;102342;1291;64449;-24
2023/01/01 00:13:43;;;;;;;2.60;2.10;;;;;;;9.73;71.95;99188.18;102250;1292;62518;-25
2023/01/01 00:16:11;;;;;;;6.10;2.80;;;;;;;10.05;70.73;99191.49;102266;1293;75349;-25
2023/01/01 00:18:39;;;;;;;7.10;3.00;;;;;;;10.02;70.49;99193.79;102287;1299;75708;-24
2023/01/01 00:21:09;;;;;;;7.50;3.20;;;;;;;9.85;70.61;99200.79;102384;1299;74243;-24
2023/01/01 00:23:36;;;;;;;4.20;2.60;;;;;;;9.66;71.43;99192.85;102180;1296;62819;-24
2023/01/01 00:26:21;;;;;;;3.40;2.80;;;;;;;9.50;71.93;99202.55;102237;1299;61853;-25
2023/01/01 00:28:48;;;;;;;3.30;2.10;;;;;;;9.37;72.48;99200.35;102027;1299;76104;-25
2023/01/01 00:31:17;;;;;;;3.80;2.50;;;;;;;9.51;73.07;99214.96;102226;1299;75562;-24
2023/01/01 00:33:45;;;;;;;3.70;2.70;;;;;;;10.00;71.51;99218.43;102124;1297;75254;-24
2023/01/01 00:36:13;;;;;;;3.80;2.40;;;;;;;10.15;70.75;99213.99;102142;1294;61643;-24
2023/01/01 00:38:41;;;;;;;3.30;2.80;;;;;;;10.04;70.71;99207.72;102080;1299;62867;-25
2023/01/01 00:41:08;;;;;;;4.10;2.40;;;;;;;9.87;71.17;99216.98;102069;1295;75040;-24
2023/01/01 00:43:35;;;;;;;3.60;2.70;;;;;;;9.70;71.80;99221.89;102284;1293;75820;-24
2023/01/01 00:46:03;;;;;;;3.70;2.40;;;;;;;9.55;72.26;99215.69;102148;1299;75308;-25
2023/01/01 00:48:30;;;;;;;2.80;1.80;;;;;;;9.50;73.21;99210.55;102120;1301;64356;-24
2023/01/01 00:50:58;;;;;;;3.70;2.50;;;;;;;9.93;72.32;99209.22;102305;1298;62052;-25
2023/01/01 00:53:25;;;;;;;3.40;2.40;;;;;;;10.21;70.82;99209.85;102359;1298;75695;-24
2023/01/01 00:55:52;;;;;;;3.30;2.30;;;;;;;10.17;70.96;99208.59;102329;1297;75474;-25
2023/01/01 00:58:19;;;;;;;4.40;2.50;;;;;;;10.06;71.07;99212.92;102313;1299;74145;-25
2023/01/01 01:00:46;;;;;;;3.70;2.50;;;;;;;9.94;71.64;99219.04;102300;1302;62637;-24
2023/01/01 01:03:26;;;;;;;4.00;2.90;;;;;;;9.81;72.11;99211.52;102337;1299;61582;-24
2023/01/01 01:06:00;;;;;;;2.50;1.80;;;;;;;9.69;72.56;99205.46;102289;1299;76409;-24
2023/01/01 01:08:28;;;;;;;3.00;2.30;;;;;;;9.95;72.48;99203.69;102370;1294;76749;-25
2023/01/01 01:11:10;;;;;;;3.40;2.20;;;;;;;10.32;71.07;99199.65;102040;1300;75232;-25
2023/01/01 01:13:37;;;;;;;2.70;2.10;;;;;;;10.36;70.53;99198.67;102238;1302;61377;-24
2023/01/01 01:16:08;;;;;;;3.00;1.90;;;;;;;10.31;70.51;99195.72;102334;1299;61809;-25
2023/01/01 01:18:35;;;;;;;5.10;2.90;;;;;;;10.15;71.12;99202.87;102298;1302;76124;-25
2023/01/01 01:21:02;;;;;;;4.10;2.40;;;;;;;9.98;71.54;99195.13;102308;1299;77161;-25
2023/01/01 01:23:30;;;;;;;3.50;2.30;;;;;;;9.84;71.98;99196.85;102303;1299;74484;-24
2023/01/01 01:26:13;;;;;;;3.30;2.40;;;;;;;9.84;72.47;99183.35;102262;1299;63450;-24
2023/01/01 01:28:41;;;;;;;3.60;1.90;;;;;;;10.28;70.98;99182.60;102303;1299;61561;-25
2023/01/01 01:31:16;;;;;;;5.00;2.10;;;;;;;10.37;70.42;99189.70;102369;1299;76124;-25
2023/01/01 01:33:44;;;;;;;3.80;2.20;;;;;;;10.16;70.67;99187.19;102207;1302;76963;-24
2023/01/01 01:36:11;;;;;;;3.60;2.70;;;;;;;10.02;71.59;99195.39;102214;1300;75045;-24
2023/01/01 01:38:39;;;;;;;4.60;2.70;;;;;;;9.85;72.11;99193.54;102407;1290;61840;-24
2023/01/01 01:41:06;;;;;;;3.20;2.50;;;;;;;9.70;72.36;99196.05;102329;1299;61526;-25
2023/01/01 01:43:33;;;;;;;4.50;2.10;;;;;;;9.61;72.96;99203.30;102336;1299;74303;-24
2023/01/01 01:46:05;;;;;;;3.80;2.20;;;;;;;10.02;72.29;99206.98;102300;1293;76789;-25
2023/01/01 01:48:38;;;;;;;4.20;2.70;;;;;;;10.26;70.86;99203.05;102261;1292;74466;-25
2023/01/01 01:51:05;;;;;;;4.00;2.40;;;;;;;10.18;70.91;99217.58;102004;1302;62795;-24
2023/01/01 01:53:34;;;;;;;4.80;2.30;;;;;;;9.99;71.45;99217.80;102063;1299;61530;-25
2023/01/01 01:56:03;;;;;;;3.50;2.90;;;;;;;9.79;72.15;99214.29;102371;1299;74388;-24
2023/01/01 01:58:30;;;;;;;3.30;2.70;;;;;;;9.56;72.87;99212.99;102346;1298;75480;-24
2023/01/01 02:00:57;;;;;;;3.00;2.20;;;;;;;9.45;73.48;99213.88;102360;1299;75393;-24
2023/01/01 02:03:45;;;;;;;3.40;2.30;;;;;;;9.76;73.31;99221.61;102271;1302;61855;-24
2023/01/01 02:06:13;;;;;;;2.90;2.20;;;;;;;10.00;72.07;99218.10;102214;1299;61538;-24
2023/01/01 02:08:40;;;;;;;3.70;2.80;;;;;;;9.91;72.17;99218.19;102359;1299;76481;-24
2023/01/01 02:11:07;;;;;;;3.40;2.60;;;;;;;9.78;72.51;99214.00;102309;1292;75576;-24
2023/01/01 02:13:37;;;;;;;4.50;2.80;;;;;;;9.60;73.12;99212.02;102330;1296;73901;-24
2023/01/01 02:16:10;;;;;;;4.50;2.80;;;;;;;9.45;73.62;99214.38;102319;1299;61843;-24
2023/01/01 02:18:37;;;;;;;;;;;;;;;9.36;74.03;99207.38;102278;1301;61861;-24
2023/01/01 02:21:18;;;;;;;2.50;1.90;;;;;;;9.76;73.65;99206.38;102281;1294;76367;-24
2023/01/01 02:24:05;;;;;;;3.50;2.10;;;;;;;10.10;72.25;99206.71;102020;1294;75504;-24
2023/01/01 02:26:44;;;;;;;3.60;2.60;;;;;;;10.05;71.89;99200.13;102356;1299;74297;-24
2023/01/01 02:29:14;;;;;;;5.20;2.70;;;;;;;9.88;72.38;99199.20;102197;1294;61970;-24
2023/01/01 02:31:45;;;;;;;2.90;2.30;;;;;;;9.71;72.87;99188.83;102371;1299;61909;-24
2023/01/01 02:34:13;;;;;;;2.70;2.20;;;;;;;9.55;73.36;99191.41;102222;1299;76362;-24
2023/01/01 02:36:44;;;;;;;3.40;2.20;;;;;;;9.61;73.90;99200.70;102218;1299;76527;-24
2023/01/01 02:39:11;;;;;;;3.20;2.40;;;;;;;10.10;72.26;99197.90;102091;1299;73944;-24
2023/01/01 02:41:39;;;;;;;3.30;2.20;;;;;;;10.28;71.21;99190.96;102234;1299;62854;-24
2023/01/01 02:44:06;;;;;;;7.40;3.10;;;;;;;10.18;71.19;99185.60;102114;1302;62785;-24
2023/01/01 02:46:34;;;;;;;5.00;2.60;;;;;;;9.98;71.98;99189.02;102325;1297;76367;-24
2023/01/01 02:49:02;;;;;;;4.00;2.70;;;;;;;9.78;72.73;99193.88;102306;1299;76736;-24
2023/01/01 02:52:02;;;;;;;2.80;2.30;;;;;;;9.60;73.37;99190.70;102281;1299;74909;-24
2023/01/01 02:54:35;;;;;;;3.20;2.40;;;;;;;9.62;73.83;99188.35;102309;1301;63523;-24
2023/01/01 02:57:24;;;;;;;3.10;2.50;;;;;;;10.01;72.46;99194.02;102327;1299;61851;-24
2023/01/01 03:02:49;;;;;;;6.70;2.80;;;;;;;10.03;72.05;99207.80;102322;1301;75544;-24
2023/01/01 03:05:35;;;;;;;5.70;2.50;;;;;;;9.84;72.59;99203.29;102324;1292;75319;-24
2023/01/01 03:08:16;;;;;;;4.40;2.80;;;;;;;9.68;73.25;99209.88;101987;1302;62494;-24
2023/01/01 03:10:52;;;;;;;6.20;2.60;;;;;;;9.57;73.73;99203.42;102098;1300;62914;-24
2023/01/01 03:13:22;;;;;;;3.80;2.70;;;;;;;9.94;73.08;99207.89;102195;1298;76344;-24
2023/01/01 03:15:58;;;;;;;4.50;2.90;;;;;;;10.09;71.87;99200.87;102327;1291;76699;-24
2023/01/01 03:18:27;;;;;;;4.20;3.10;;;;;;;10.05;71.82;99211.24;102174;1301;75218;-24
2023/01/01 03:20:55;;;;;;;4.50;3.10;;;;;;;9.88;72.55;99208.91;102295;1283;62188;-25
2023/01/01 03:23:26;;;;;;;5.10;3.80;;;;;;;9.75;73.08;99197.38;102014;1299;62135;-24
2023/01/01 03:25:54;;;;;;;4.10;2.60;;;;;;;9.59;73.71;99201.04;102080;1302;74540;-24
2023/01/01 03:28:24;;;;;;;3.80;2.80;;;;;;;9.86;73.40;99206.77;102062;1302;76736;-24
2023/01/01 03:30:51;;;;;;;6.60;2.80;;;;;;;10.22;71.77;99205.80;102125;1299;74110;-24
2023/01/01 03:33:38;;;;;;;6.00;3.20;;;;;;;10.30;71.24;99203.84;102089;1299;61569;-24
2023/01/01 03:36:08;;;;;;;4.40;2.90;;;;;;;10.12;71.52;99199.80;102329;1293;61816;-24
2023/01/01 03:38:41;;;;;;;3.60;2.40;;;;;;;9.93;72.49;99206.42;102202;1301;76437;-24
2023/01/01 03:41:32;;;;;;;6.10;3.70;;;;;;;9.77;72.91;99210.05;102204;1292;74768;-24
2023/01/01 03:44:25;;;;;;;3.40;2.30;;;;;;;9.64;73.14;99213.64;101862;1302;74438;-24
2023/01/01 03:46:52;;;;;;;6.30;3.10;;;;;;;9.87;73.33;99209.34;102165;1302;62716;-24
2023/01/01 03:49:19;;;;;;;4.90;3.10;;;;;;;10.20;72.01;99203.52;102265;1292;62590;-24
2023/01/01 03:51:52;;;;;;;4.40;2.80;;;;;;;10.24;71.29;99208.42;102327;1302;76674;-24
2023/01/01 03:54:35;;;;;;;4.20;2.80;;;;;;;10.12;71.85;99218.71;102332;1302;75364;-24
2023/01/01 03:57:05;;;;;;;6.00;3.50;;;;;;;9.98;72.05;99216.63;102328;1295;74169;-24
2023/01/01 03:59:37;;;;;;;4.20;3.10;;;;;;;9.82;72.54;99223.71;102214;1296;62496;-24
2023/01/01 04:02:04;;;;;;;3.70;2.60;;;;;;;9.64;73.58;99222.66;102202;1299;62901;-24
2023/01/01 04:04:31;;;;;;;3.80;2.80;;;;;;;9.77;73.44;99229.50;102313;1299;76228;-24
2023/01/01 04:06:58;;;;;;;5.30;3.00;;;;;;;10.23;71.74;99227.61;102202;1300;77055;-24
2023/01/01 04:09:41;;;;;;;4.30;3.20;;;;;;;10.38;71.15;99220.86;102126;1300;75166;-24
2023/01/01 04:12:08;;;;;;;7.20;3.80;;;;;;;10.25;71.01;99234.36;102189;1294;61604;-24
2023/01/01 04:14:38;;;;;;;4.80;3.40;;;;;;;10.09;71.56;99233.51;102278;1302;61922;-24
2023/01/01 04:17:05;;;;;;;7.80;3.10;;;;;;;9.93;72.09;99230.71;102205;1304;75481;-24
2023/01/01 04:19:33;;;;;;;4.40;3.20;;;;;;;9.77;72.61;99228.27;102109;1304;77279;-25
2023/01/01 04:22:00;;;;;;;4.40;2.80;;;;;;;9.70;73.35;99228.27;102352;1297;73903;-24
2023/01/01 04:24:27;;;;;;;4.10;2.90;;;;;;;10.08;72.25;99229.82;102111;1302;62853;-25
2023/01/01 04:26:55;;;;;;;5.30;3.10;;;;;;;10.27;71.21;99224.19;102319;1298;61640;-24
2023/01/01 04:29:21;;;;;;;5.10;3.30;;;;;;;10.20;71.18;99219.69;102334;1291;76510;-24
2023/01/01 04:31:48;;;;;;;4.90;3.20;;;;;;;10.03;71.56;99220.75;102339;1298;75824;-25
2023/01/01 04:34:16;;;;;;;4.60;3.50;;;;;;;9.85;71.86;99226.31;102317;1298;73919;-24
2023/01/01 04:36:43;;;;;;;5.20;3.40;;;;;;;9.63;72.80;99223.60;102398;1299;61606;-24
2023/01/01 04:39:10;;;;;;;7.70;3.10;;;;;;;9.60;73.17;99222.92;102269;1303;62754;-24
2023/01/01 04:41:37;;;;;;;5.10;2.80;;;;;;;10.03;72.38;99223.40;102332;1298;76304;-25
2023/01/01 04:44:04;;;;;;;4.20;3.30;;;;;;;10.21;71.41;99221.16;102326;1299;75985;-24
2023/01/01 04:46:31;;;;;;;4.50;3.30;;;;;;;10.16;71.26;99220.83;102195;1299;75409;-25
2023/01/01 04:48:58;;;;;;;4.30;3.50;;;;;;;9.96;71.65;99217.46;102228;1289;62820;-24
2023/01/01 04:51:25;;;;;;;4.30;3.20;;;;;;;9.77;72.03;99216.98;102255;1297;61567;-24
2023/01/01 04:53:52;;;;;;;5.70;3.60;;;;;;;9.60;73.04;99218.30;102361;1298;76342;-24
2023/01/01 04:56:20;;;;;;;3.90;2.70;;;;;;;9.59;73.37;99223.90;102186;1298;76597;-24
2023/01/01 04:58:47;;;;;;;5.10;3.60;;;;;;;10.08;72.15;99226.80;102092;1302;74943;-25
2023/01/01 05:01:19;;;;;;;4.50;3.10;;;;;;;10.33;70.94;99215.00;102325;1291;61161;-25
2023/01/01 05:03:47;;;;;;;4.70;3.20;;;;;;;10.26;70.79;99221.45;102118;1302;62641;-25
2023/01/01 05:06:14;;;;;;;4.30;3.40;;;;;;;10.07;71.29;99219.42;102322;1292;76370;-24
2023/01/01 05:08:43;;;;;;;6.00;4.00;;;;;;;9.88;71.86;99227.64;102355;1298;76512;-24
2023/01/01 05:11:15;;;;;;;7.70;3.10;;;;;;;9.72;72.49;99229.02;101955;1303;75222;-24
2023/01/01 05:13:44;;;;;;;5.10;3.50;;;;;;;9.57;72.81;99225.77;101957;1296;61601;-24
2023/01/01 05:16:13;;;;;;;4.70;2.70;;;;;;;9.79;73.20;99228.48;102365;1301;62587;-25
2023/01/01 05:18:40;;;;;;;4.80;3.60;;;;;;;10.23;71.35;99224.82;102207;1302;75088;-24
2023/01/01 05:21:11;;;;;;;3.90;2.90;;;;;;;10.26;70.93;99232.69;102327;1303;76617;-24
2023/01/01 05:23:39;;;;;;;7.20;3.50;;;;;;;10.11;71.22;99233.55;102312;1301;75248;-24
2023/01/01 05:26:09;;;;;;;5.80;3.30;;;;;;;9.98;71.35;99230.33;102292;1299;62710;-24
2023/01/01 05:28:36;;;;;;;5.50;3.90;;;;;;;9.83;71.88;99236.01;102217;1298;61587;-25
2023/01/01 05:31:09;;;;;;;2.30;1.90;;;;;;;9.66;72.64;99239.34;102333;1299;75087;-25
2023/01/01 05:33:36;;;;;;;3.80;3.10;;;;;;;9.89;72.77;99240.36;101946;1302;76454;-25
2023/01/01 05:36:03;;;;;;;5.00;2.70;;;;;;;10.24;70.92;99234.40;102222;1301;74984;-25
2023/01/01 05:38:30;;;;;;;6.50;3.50;;;;;;;10.28;70.61;99232.89;102191;1302;63130;-25
2023/01/01 05:40:58;;;;;;;4.70;3.20;;;;;;;10.22;70.58;99234.75;102396;1298;61480;-25
2023/01/01 05:43:25;;;;;;;3.60;2.70;;;;;;;10.00;71.12;99240.59;102293;1299;76440;-24
2023/01/01 05:46:03;;;;;;;4.40;3.10;;;;;;;9.79;71.97;99243.58;102316;1297;76636;-25
2023/01/01 05:48:30;;;;;;;4.70;2.50;;;;;;;9.58;72.51;99243.38;101981;1303;73877;-24
2023/01/01 05:51:11;;;;;;;3.30;2.20;;;;;;;9.60;72.95;99242.34;102260;1298;64506;-25
2023/01/01 05:53:38;;;;;;;4.70;3.00;;;;;;;9.98;71.78;99242.82;102260;1292;62252;-24
2023/01/01 05:56:06;;;;;;;5.40;3.60;;;;;;;10.16;70.66;99242.16;102304;1299;75291;-25
2023/01/01 05:58:34;;;;;;;5.60;3.50;;;;;;;9.95;71.10;99246.85;102174;1294;76169;-24
2023/01/01 06:01:09;;;;;;;6.60;3.20;;;;;;;9.65;71.78;99250.31;101997;1302;75005;-24
2023/01/01 06:03:36;;;;;;;5.90;4.00;;;;;;;9.41;72.62;99249.64;101965;1308;61584;-24
2023/01/01 06:06:05;;;;;;;5.50;3.20;;;;;;;9.15;73.59;99247.89;102164;1297;62591;-25
2023/01/01 06:08:32;;;;;;;3.50;2.80;;;;;;;9.17;73.95;99249.96;102123;1299;76248;-24
2023/01/01 06:11:01;;;;;;;4.40;3.40;;;;;;;9.52;72.89;99247.45;102036;1299;76634;-24
2023/01/01 06:13:28;;;;;;;5.20;3.70;;;;;;;9.59;72.30;99245.91;101941;1301;75305;-24
2023/01/01 06:15:56;;;;;;;5.80;4.00;;;;;;;9.42;72.43;99248.39;102334;1297;61560;-25
2023/01/01 06:18:24;;;;;;;5.20;3.60;;;;;;;9.25;73.05;99247.30;102208;1302;62641;-25
2023/01/01 06:20:52;;;;;;;7.50;4.10;;;;;;;9.13;73.50;99245.22;102375;1299;76327;-24
2023/01/01 06:23:19;;;;;;;4.70;3.20;;;;;;;9.05;73.97;99247.35;102354;1299;76536;-24
2023/01/01 06:25:46;;;;;;;5.90;3.20;;;;;;;9.42;73.54;99246.42;102334;1298;73962;-24
2023/01/01 06:28:13;;;;;;;3.90;3.00;;;;;;;9.79;71.96;99252.03;102326;1291;61754;-24
2023/01/01 06:30:40;;;;;;;6.20;3.70;;;;;;;9.76;71.56;99248.28;102285;1299;62608;-24
2023/01/01 06:33:07;;;;;;;5.90;3.50;;;;;;;9.58;71.91;99249.95;102172;1302;76853;-24
2023/01/01 06:35:34;;;;;;;6.60;3.90;;;;;;;9.48;72.55;99246.70;102225;1293;75850;-25
2023/01/01 06:38:01;;;;;;;5.90;3.30;;;;;;;9.40;72.83;99250.95;102298;1299;74896;-24
2023/01/01 06:40:28;;;;;;;4.50;2.90;;;;;;;9.47;73.00;99253.34;102072;1301;64406;-24
2023/01/01 06:42:55;;;;;;;4.80;3.40;;;;;;;9.99;71.58;99257.65;102265;1305;62915;-25
2023/01/01 06:45:22;;;;;;;5.30;3.60;;;;;;;10.18;70.54;99257.80;102169;1295;76424;-25
2023/01/01 06:47:49;;;;;;;4.30;3.40;;;;;;;10.12;70.42;99258.09;102316;1297;76773;-25
2023/01/01 06:50:16;;;;;;;6.00;3.90;;;;;;;9.99;70.80;99254.86;102240;1298;74944;-25
2023/01/01 06:52:46;;;;;;;4.30;3.20;;;;;;;9.87;71.05;99264.79;102356;1297;62884;-24
2023/01/01 06:55:13;;;;;;;5.90;3.60;;;;;;;9.67;71.59;99253.67;102031;1304;62963;-25
2023/01/01 06:57:40;;;;;;;6.20;3.00;;;;;;;9.56;71.98;99255.30;102287;1299;76940;-24
2023/01/01 07:00:08;;;;;;;5.20;2.80;;;;;;;9.68;72.28;99257.52;102267;1299;75556;-24
2023/01/01 07:02:35;;;;;;;4.30;2.70;;;;;;;10.23;70.50;99257.28;102075;1299;75170;-24
2023/01/01 07:05:02;;;;;;;3.90;3.20;;;;;;;10.36;69.61;99252.11;102222;1299;61784;-25
2023/01/01 07:07:29;;;;;;;6.80;3.90;;;;;;;10.30;69.44;99245.62;102169;1292;63449;-24
2023/01/01 07:10:01;;;;;;;7.30;3.60;;;;;;;10.20;69.57;99252.95;102298;1299;76224;-26
2023/01/01 07:12:29;;;;;;;5.60;4.00;;;;;;;10.09;70.03;99256.56;102151;1302;74823;-25
2023/01/01 07:14:56;;;;;;;5.80;3.70;;;;;;;10.00;70.24;99264.69;102183;1298;74176;-25
2023/01/01 07:17:23;;;;;;;6.80;3.40;;;;;;;9.82;70.83;99258.60;102067;1300;61779;-24
2023/01/01 07:19:50;;;;;;;4.80;3.20;;;;;;;9.77;71.29;99256.00;102304;1296;61510;-24
2023/01/01 07:22:17;;;;;;;4.60;3.20;;;;;;;10.21;69.96;99259.34;102200;1299;75372;-24
2023/01/01 07:24:44;;;;;;;5.20;3.50;;;;;;;10.36;69.30;99264.94;102180;1292;75705;-25
2023/01/01 07:27:11;;;;;;;9.80;4.20;;;;;;;10.16;69.53;99270.23;102009;1301;73940;-25
2023/01/01 07:29:38;;;;;;;6.10;3.70;;;;;;;9.89;70.41;99270.02;102241;1292;61577;-25
2023/01/01 07:32:05;;;;;;;7.60;4.00;;;;;;;9.72;70.92;99273.02;102185;1292;61602;-24
2023/01/01 07:34:32;;;;;;;4.50;3.10;;;;;;;9.58;71.49;99274.01;102181;1301;75395;-24
2023/01/01 07:37:00;;;;;;;4.90;2.50;;;;;;;9.42;72.02;99275.20;102129;1300;76045;-24
2023/01/01 07:39:27;;;;;;;7.70;3.40;;;;;;;9.45;72.27;99272.94;102108;1300;75268;-25
2023/01/01 07:41:53;;;;;;;7.80;3.80;;;;;;;9.89;70.96;99279.52;102245;1298;62064;-24
2023/01/01 07:44:21;;;;;;;4.90;3.60;;;;;;;10.04;70.34;99276.21;102180;1291;63177;-25
2023/01/01 07:46:48;;;;;;;6.40;3.10;;;;;;;10.09;69.74;99279.98;102186;1299;75426;-24
2023/01/01 07:49:15;;;;;;;5.80;3.50;;;;;;;9.94;69.96;99271.42;102293;1299;76810;-25
2023/01/01 07:51:42;;;;;;;5.60;3.80;;;;;;;9.87;70.22;99277.35;102303;1299;73922;-25
2023/01/01 07:54:09;;;;;;;8.70;3.50;;;;;;;9.73;70.57;99268.81;102266;1297;61605;-25
2023/01/01 07:56:36;;;;;;;4.50;3.60;;;;;;;9.64;71.06;99260.25;102131;1300;62881;-25
2023/01/01 07:59:03;;;;;;;5.30;3.10;;;;;;;9.60;70.86;99266.66;102103;1299;76335;-24
2023/01/01 08:01:30;;;;;;;4.80;3.00;;;;;;;9.60;71.43;99267.52;102179;1299;75927;-25
2023/01/01 08:03:57;;;;;;;4.60;3.00;;;;;;;10.14;70.31;99265.59;102078;1302;74282;-24
2023/01/01 08:06:24;;;;;;;5.50;3.80;;;;;;;10.49;68.74;99268.11;102235;1299;61815;-25
2023/01/01 08:08:51;;;;;;;8.60;3.80;;;;;;;10.61;67.84;99264.48;102221;1297;62640;-24
2023/01/01 08:11:18;;;;;;;5.90;4.20;;;;;;;10.70;67.93;99268.39;102148;1299;75316;-24
2023/01/01 08:13:45;;;;;;;4.70;3.00;;;;;;;10.76;67.25;99257.76;102180;1301;74004;-24
2023/01/01 08:16:12;;;;;;;6.20;3.00;;;;;;;10.68;67.47;99264.56;102216;1296;73948;-25
2023/01/01 08:18:40;;;;;;;4.70;2.40;;;;;;;10.71;67.32;99262.30;102060;1300;62328;-25
2023/01/01 08:21:07;;;;;;;4.70;3.50;;;;;;;10.80;67.26;99265.70;102217;1298;61757;-24
2023/01/01 08:23:34;;;;;;;5.10;3.30;;;;;;;10.92;66.69;99265.21;102204;1298;76400;-25
2023/01/01 08:26:01;;;;;;;4.20;3.20;;;;;;;11.07;66.43;99269.33;101367;1298;1312235;-24
2023/01/01 08:28:28;;;;;;;6.40;3.40;;;;;;;11.21;65.72;99273.15;102288;1298;72870;-25
2023/01/01 08:30:55;;;;;;;6.00;3.20;;;;;;;11.29;65.37;99270.55;102285;1298;62939;-24
2023/01/01 08:33:24;;;;;;;4.70;3.40;;;;;;;11.40;65.03;99282.00;102223;1290;61615;-25
2023/01/01 08:35:51;;;;;;;3.80;2.50;;;;;;;11.47;64.45;99282.34;102306;1299;75802;-24
2023/01/01 08:38:20;;;;;;;4.30;3.60;;;;;;;11.52;64.40;99281.37;102027;1303;75833;-24
2023/01/01 08:40:48;;;;;;;3.70;3.00;;;;;;;11.62;64.49;99274.31;102162;1296;75094;-24
2023/01/01 08:43:15;;;;;;;4.00;2.90;;;;;;;11.74;63.85;99274.25;102267;1299;62347;-24
2023/01/01 08:45:42;;;;;;;5.00;2.80;;;;;;;11.83;63.91;99282.14;102298;1299;62585;-24
2023/01/01 08:48:09;;;;;;;3.80;2.60;;;;;;;11.95;63.73;99274.23;102206;1292;76146;-25
2023/01/01 08:50:36;;;;;;;4.80;2.90;;;;;;;12.04;63.12;99271.02;102285;1298;76481;-24
2023/01/01 08:53:03;;;;;;;6.90;3.80;;;;;;;12.18;63.01;99274.39;102185;1300;75573;-25
2023/01/01 08:55:30;;;;;;;3.80;2.70;;;;;;;12.32;62.47;99273.45;102306;1291;61656;-24
2023/01/01 08:57:57;;;;;;;6.00;3.50;;;;;;;12.52;62.16;99272.26;102334;1291;61086;-24
2023/01/01 09:00:24;;;;;;;6.50;3.70;;;;;;;12.75;61.71;99278.46;102234;1299;76173;-25
2023/01/01 09:02:51;;;;;;;5.00;2.90;;;;;;;12.87;60.75;99274.08;102209;1291;76554;-25
2023/01/01 09:05:18;;;;;;;3.40;2.80;;;;;;;12.95;60.53;99268.05;102249;1291;75159;-24
2023/01/01 09:07:45;;;;;;;5.20;3.00;;;;;;;13.01;60.41;99275.90;102215;1299;61583;-24
2023/01/01 09:10:12;;;;;;;7.30;3.00;;;;;;;13.05;60.40;99273.75;102253;1291;61582;-24
2023/01/01 09:12:39;;;;;;;4.60;2.60;;;;;;;13.04;59.85;99282.77;102119;1295;76121;-25
2023/01/01 09:15:13;;;;;;;5.00;3.10;;;;;;;13.10;60.42;99286.75;102163;1291;75644;-25
2023/01/01 09:17:40;;;;;;;6.10;2.80;;;;;;;13.17;60.00;99282.33;102133;1299;74897;-25
2023/01/01 09:20:08;;;;;;;3.70;2.80;;;;;;;13.19;59.65;99288.20;102275;1299;61556;-24
2023/01/01 09:22:35;;;;;;;4.60;2.80;;;;;;;13.21;59.74;99284.42;102050;1299;62291;-25
2023/01/01 09:25:02;;;;;;;3.50;2.50;;;;;;;13.18;59.75;99293.72;102236;1299;75639;-24
2023/01/01 09:27:29;;;;;;;2.90;2.40;;;;;;;13.17;60.09;99286.55;102231;1298;75700;-24
2023/01/01 09:29:56;;;;;;;3.80;2.50;;;;;;;13.13;60.26;99287.01;102235;1300;74428;-24
2023/01/01 09:32:23;;;;;;;4.50;2.90;;;;;;;13.12;60.07;99287.64;102297;1293;62876;-25
2023/01/01 09:34:50;;;;;;;4.90;2.90;;;;;;;13.12;59.94;99280.70;102258;1299;61518;-24
2023/01/01 09:37:18;;;;;;;2.80;2.20;;;;;;;13.12;60.11;99285.05;102223;1297;76113;-24
2023/01/01 09:39:45;;;;;;;2.80;2.50;;;;;;;13.15;59.63;99288.08;102310;1291;76738;-24
2023/01/01 09:42:15;;;;;;;3.20;2.00;;;;;;;13.20;59.00;99284.36;102201;1297;75031;-25
2023/01/01 09:44:54;;;;;;;3.90;1.80;;;;;;;13.25;59.01;99285.11;102237;1299;62918;-25
2023/01/01 09:47:35;;;;;;;3.60;2.30;;;;;;;13.30;58.58;99282.41;102357;1299;61518;-25
2023/01/01 09:52:34;;;;;;;2.30;2.10;;;;;;;13.43;58.60;99282.34;99295;1330;600603;-23
2023/01/01 09:55:03;;;;;;;3.40;2.50;;;;;;;13.47;58.22;99282.81;101313;1307;61857;-23
2023/01/01 09:57:31;;;;;;;3.90;2.60;;;;;;;13.49;58.29;99276.91;101310;1311;61785;-24
2023/01/01 09:59:58;;;;;;;2.90;2.00;;;;;;;13.50;58.54;99270.55;101276;1311;74658;-24
2023/01/01 10:03:06;;;;;;;3.40;2.40;;;;;;;13.45;58.12;99266.42;101356;1303;75697;-24
2023/01/01 10:05:46;;;;;;;4.30;2.70;;;;;;;13.47;58.21;99267.80;100199;1306;1427988;-24
2023/01/01 10:08:42;;;;;;;3.30;2.00;;;;;;;13.49;58.40;99265.52;101453;1308;61516;-24
2023/01/01 10:11:09;;;;;;;3.30;2.40;;;;;;;13.53;58.37;99261.71;101441;1305;62956;-23
2023/01/01 10:13:41;;;;;;;5.30;2.30;;;;;;;13.57;57.97;99254.52;101617;1307;73821;-23
2023/01/01 10:16:31;;;;;;;4.00;2.30;;;;;;;13.65;58.09;99267.11;101401;1308;76818;-24
2023/01/01 10:19:17;;;;;;;4.30;2.20;;;;;;;13.74;57.48;99262.11;101320;1310;75464;-23
2023/01/01 10:21:45;;;;;;;3.00;2.60;;;;;;;13.80;57.48;99257.73;101273;1300;61735;-24
2023/01/01 10:24:37;;;;;;;3.10;2.80;;;;;;;13.89;57.43;99258.35;101369;1300;62402;-23
2023/01/01 10:27:04;;;;;;;4.00;2.30;;;;;;;13.92;56.98;99255.80;101671;1309;74617;-23
2023/01/01 10:29:45;;;;;;;3.60;2.30;;;;;;;13.90;57.14;99268.13;101358;1308;74548;-24
2023/01/01 10:32:20;;;;;;;2.80;1.90;;;;;;;14.03;56.72;99270.95;101338;1303;75211;-24
2023/01/01 10:34:48;;;;;;;4.30;2.40;;;;;;;14.01;56.69;99266.45;101297;1303;62083;-24
2023/01/01 10:37:15;;;;;;;2.60;1.90;;;;;;;13.92;56.85;99271.69;101298;1311;61886;-24
2023/01/01 10:39:42;;;;;;;4.40;2.30;;;;;;;13.78;56.97;99258.29;101258;1310;75537;-24
2023/01/01 10:42:12;;;;;;;5.30;2.60;;;;;;;13.75;57.28;99260.45;101191;1306;76819;-24
2023/01/01 10:44:39;;;;;;;3.80;2.00;;;;;;;13.69;57.79;99262.05;100924;1311;74268;-25
2023/01/01 10:47:24;;;;;;;3.90;2.80;;;;;;;13.70;57.65;99265.11;101283;1311;62085;-24
2023/01/01 10:49:59;;;;;;;3.20;2.50;;;;;;;13.65;58.17;99266.04;100877;1311;62266;-24
2023/01/01 10:52:34;;;;;;;2.60;2.20;;;;;;;13.70;57.96;99258.83;101205;1303;74569;-24
2023/01/01 10:55:02;;;;;;;2.80;2.40;;;;;;;13.71;57.91;99253.45;101204;1311;75515;-26
2023/01/01 10:57:34;;;;;;;4.40;2.40;;;;;;;13.65;58.26;99253.69;101024;1311;73991;-24
2023/01/01 11:00:21;;;;;;;4.00;2.50;;;;;;;13.67;58.28;99257.02;101257;1312;63139;-24
2023/01/01 11:03:15;;;;;;;4.90;2.80;;;;;;;13.63;58.48;99263.15;101217;1311;62531;-24
2023/01/01 11:06:04;;;;;;;6.40;3.10;;;;;;;13.57;58.49;99264.38;100929;1306;75571;-24
2023/01/01 11:08:32;;;;;;;2.50;1.90;;;;;;;13.50;58.93;99265.67;101237;1310;76652;-24
2023/01/01 11:11:01;;;;;;;5.00;2.70;;;;;;;13.45;58.76;99261.55;101026;1306;74929;-24
2023/01/01 11:13:28;;;;;;;2.80;1.80;;;;;;;13.40;58.88;99263.60;100852;1304;63071;-24
2023/01/01 11:15:55;;;;;;;4.70;2.10;;;;;;;13.32;59.38;99269.29;101369;1311;61508;-25
2023/01/01 11:18:26;;;;;;;2.70;2.20;;;;;;;13.29;59.15;99262.23;101107;1311;75718;-25
2023/01/01 11:20:55;;;;;;;3.20;2.30;;;;;;;13.25;59.44;99269.73;101120;1311;76690;-24
2023/01/01 11:23:29;;;;;;;5.60;2.40;;;;;;;13.20;59.45;99271.46;101127;1311;74377;-24
2023/01/01 11:26:18;;;;;;;4.90;2.50;;;;;;;13.15;59.93;99280.55;101079;1311;61784;-24
2023/01/01 11:29:15;;;;;;;3.90;2.60;;;;;;;13.10;59.85;99280.86;101053;1314;61605;-24
2023/01/01 11:31:44;;;;;;;5.20;2.60;;;;;;;13.06;60.43;99283.61;101391;1308;75636;-24
2023/01/01 11:34:34;;;;;;;3.40;2.20;;;;;;;13.02;60.58;99286.98;100924;1311;75564;-24
2023/01/01 11:37:22;;;;;;;5.10;3.20;;;;;;;13.00;60.67;99277.52;101069;1313;75284;-24
2023/01/01 11:39:50;;;;;;;3.10;2.30;;;;;;;12.98;60.64;99274.80;101090;1308;62692;-24
2023/01/01 11:42:23;;;;;;;3.90;2.60;;;;;;;12.96;60.84;99272.29;101251;1311;61064;-24
2023/01/01 11:44:52;;;;;;;6.80;2.40;;;;;;;12.95;61.01;99270.27;100934;1307;75498;-24
2023/01/01 11:47:30;;;;;;;3.90;2.70;;;;;;;12.95;61.24;99273.44;101124;1306;76816;-24
2023/01/01 11:50:10;;;;;;;4.10;3.00;;;;;;;12.97;61.18;99263.02;100965;1314;75234;-24